createdAt,value
2022-11-26T00:02:20.241Z,204.20
2022-11-26T00:04:47.144Z,188.27
2022-11-26T00:07:17.555Z,221.88
2022-11-26T00:09:44.512Z,204.15
2022-11-26T00:12:26.183Z,216.45
2022-11-26T00:14:53.506Z,145.75
2022-11-26T00:17:21.922Z,191.90
2022-11-26T00:19:49.133Z,159.10
2022-11-26T00:22:34.966Z,151.65
2022-11-26T00:25:01.586Z,140.32
2022-11-26T00:27:28.708Z,149.23
2022-11-26T00:29:55.547Z,130.55
2022-11-26T00:32:26.281Z,125.13
2022-11-26T00:34:53.587Z,141.80
2022-11-26T00:37:29.003Z,157.30
2022-11-26T00:39:57.027Z,153.95
2022-11-26T00:42:23.919Z,335.83
2022-11-26T00:44:50.475Z,226.10
2022-11-26T00:47:16.958Z,159.38
2022-11-26T00:49:44.427Z,171.13
2022-11-26T00:52:34.372Z,163.57
2022-11-26T00:57:16.830Z,155.20
2022-11-26T00:59:43.411Z,150.63
2022-11-26T01:02:10.752Z,169.77
2022-11-26T01:04:37.754Z,169.48
2022-11-26T01:07:04.546Z,183.48
2022-11-26T01:09:31.148Z,178.75
2022-11-26T01:11:57.649Z,178.55
2022-11-26T01:14:24.317Z,134.45
2022-11-26T01:16:56.714Z,161.70
2022-11-26T01:19:23.448Z,194.27
2022-11-26T01:21:50.001Z,154.38
2022-11-26T01:24:16.582Z,158.93
2022-11-26T01:26:44.862Z,144.80
2022-11-26T01:29:16.715Z,130.63
2022-11-26T01:31:43.738Z,143.02
2022-11-26T01:34:10.365Z,141.82
2022-11-26T01:36:39.900Z,141.95
2022-11-26T01:39:19.252Z,149.73
2022-11-26T01:41:52.143Z,151.80
2022-11-26T01:44:22.654Z,158.60
2022-11-26T01:46:50.127Z,146.65
2022-11-26T01:49:24.047Z,171.52
2022-11-26T01:52:19.948Z,157.60
2022-11-26T01:54:48.698Z,159.73
2022-11-26T01:57:20.551Z,167.10
2022-11-26T01:59:52.904Z,214.15
2022-11-26T02:02:23.099Z,180.52
2022-11-26T02:05:03.472Z,158.10
2022-11-26T02:07:30.184Z,173.23
2022-11-26T02:09:56.865Z,159.65
2022-11-26T02:12:23.499Z,168.75
2022-11-26T02:14:50.010Z,147.73
2022-11-26T02:17:28.338Z,180.25
2022-11-26T02:20:15.911Z,180.30
2022-11-26T02:23:01.093Z,171.23
2022-11-26T02:25:51.797Z,154.32
2022-11-26T02:28:33.402Z,153.38
2022-11-26T02:31:08.994Z,164.83
2022-11-26T02:33:53.797Z,183.35
2022-11-26T02:36:44.863Z,175.10
2022-11-26T02:39:19.790Z,209.45
2022-11-26T02:41:55.575Z,171.38
2022-11-26T02:44:25.263Z,156.00
2022-11-26T02:46:59.007Z,162.90
2022-11-26T02:49:28.974Z,159.88
2022-11-26T02:51:59.938Z,164.43
2022-11-26T02:54:29.446Z,130.25
2022-11-26T02:56:58.134Z,125.22
2022-11-26T02:59:25.010Z,116.97
2022-11-26T03:02:03.185Z,116.43
2022-11-26T03:04:41.675Z,140.93
2022-11-26T03:07:14.825Z,133.77
2022-11-26T03:09:52.502Z,127.65
2022-11-26T03:12:19.358Z,140.80
2022-11-26T03:14:46.406Z,124.00
2022-11-26T03:17:13.715Z,117.43
2022-11-26T03:19:40.508Z,105.47
2022-11-26T03:22:08.109Z,106.00
2022-11-26T03:24:34.994Z,118.88
2022-11-26T03:27:01.646Z,108.80
2022-11-26T03:29:28.314Z,171.13
2022-11-26T03:31:54.956Z,113.60
2022-11-26T03:34:21.686Z,99.68
2022-11-26T03:36:48.313Z,100.10
2022-11-26T03:39:14.877Z,102.50
2022-11-26T03:41:44.271Z,99.47
2022-11-26T03:44:11.947Z,105.10
2022-11-26T03:46:39.271Z,106.35
2022-11-26T03:49:06.528Z,109.35
2022-11-26T03:51:33.190Z,108.05
2022-11-26T03:53:59.767Z,96.38
2022-11-26T03:56:26.395Z,98.95
2022-11-26T03:58:52.935Z,98.07
2022-11-26T04:01:19.636Z,95.63
2022-11-26T04:03:46.229Z,97.80
2022-11-26T04:06:13.023Z,95.03
2022-11-26T04:08:39.637Z,92.78
2022-11-26T04:11:06.370Z,97.75
2022-11-26T04:13:32.887Z,79.32
2022-11-26T04:15:59.696Z,86.10
2022-11-26T04:18:26.246Z,85.63
2022-11-26T04:20:53.557Z,95.38
2022-11-26T04:23:20.398Z,87.38
2022-11-26T04:25:47.076Z,83.10
2022-11-26T04:28:15.112Z,78.38
2022-11-26T04:30:42.584Z,68.75
2022-11-26T04:33:09.655Z,75.78
2022-11-26T04:35:36.510Z,69.53
2022-11-26T04:38:03.064Z,64.78
2022-11-26T04:40:29.650Z,70.53
2022-11-26T04:42:56.170Z,71.80
2022-11-26T04:45:22.718Z,74.00
2022-11-26T04:47:49.332Z,77.38
2022-11-26T04:50:16.042Z,77.40
2022-11-26T04:52:42.571Z,74.80
2022-11-26T04:55:10.126Z,70.97
2022-11-26T04:57:37.127Z,79.20
2022-11-26T05:00:06.094Z,75.43
2022-11-26T05:02:32.750Z,74.05
2022-11-26T05:04:59.459Z,71.28
2022-11-26T05:07:26.037Z,68.03
2022-11-26T05:09:52.634Z,75.47
2022-11-26T05:12:19.126Z,71.85
2022-11-26T05:14:45.698Z,77.07
2022-11-26T05:17:12.274Z,79.75
2022-11-26T05:19:38.966Z,75.60
2022-11-26T05:22:05.458Z,85.32
2022-11-26T05:24:32.102Z,74.03
2022-11-26T05:26:58.656Z,88.60
2022-11-26T05:29:25.935Z,91.40
2022-11-26T05:31:52.558Z,89.55
2022-11-26T05:34:19.256Z,82.88
2022-11-26T05:36:45.752Z,76.03
2022-11-26T05:39:12.416Z,71.22
2022-11-26T05:41:38.930Z,78.30
2022-11-26T05:44:05.535Z,80.55
2022-11-26T05:46:32.218Z,77.80
2022-11-26T05:48:58.775Z,79.78
2022-11-26T05:51:25.322Z,72.25
2022-11-26T05:53:51.959Z,71.45
2022-11-26T05:56:18.510Z,65.03
2022-11-26T05:58:45.079Z,71.45
2022-11-26T06:01:11.747Z,73.47
2022-11-26T06:08:24.019Z,76.35
2022-11-26T06:10:50.625Z,76.57
2022-11-26T06:13:17.223Z,78.15
2022-11-26T06:15:43.943Z,80.25
2022-11-26T06:18:10.437Z,85.78
2022-11-26T06:20:37.848Z,92.60
2022-11-26T06:23:04.869Z,89.72
2022-11-26T06:25:31.726Z,88.78
2022-11-26T06:27:58.294Z,84.03
2022-11-26T06:30:24.971Z,83.47
2022-11-26T06:32:51.497Z,84.13
2022-11-26T06:35:18.123Z,87.55
2022-11-26T06:37:44.703Z,82.18
2022-11-26T06:40:16.595Z,85.38
2022-11-26T06:42:48.196Z,87.10
2022-11-26T06:45:14.766Z,96.90
2022-11-26T06:47:41.290Z,92.60
2022-11-26T06:50:10.893Z,81.47
2022-11-26T06:52:37.734Z,84.97
2022-11-26T06:55:04.810Z,75.60
2022-11-26T06:57:31.433Z,76.20
2022-11-26T06:59:57.967Z,74.30
2022-11-26T07:02:24.655Z,76.00
2022-11-26T07:04:51.214Z,82.53
2022-11-26T07:07:19.985Z,75.78
2022-11-26T07:09:46.710Z,80.78
2022-11-26T07:12:13.406Z,97.85
2022-11-26T07:14:40.172Z,96.50
2022-11-26T07:17:06.992Z,235.85
2022-11-26T07:19:33.589Z,214.30
2022-11-26T07:22:00.162Z,136.35
2022-11-26T07:24:26.744Z,147.38
2022-11-26T07:26:53.430Z,132.40
2022-11-26T07:29:20.338Z,124.63
2022-11-26T07:31:46.943Z,115.68
2022-11-26T07:34:13.538Z,110.13
2022-11-26T07:36:43.125Z,106.63
2022-11-26T07:39:11.205Z,105.43
2022-11-26T07:41:38.514Z,111.57
2022-11-26T07:44:05.357Z,111.80
2022-11-26T07:46:32.125Z,86.55
2022-11-26T07:48:58.770Z,94.90
2022-11-26T07:51:28.538Z,87.63
2022-11-26T07:53:56.703Z,81.13
2022-11-26T07:56:23.458Z,83.43
2022-11-26T07:58:50.322Z,78.40
2022-11-26T08:01:19.768Z,78.40
2022-11-26T08:03:49.023Z,72.63
2022-11-26T08:06:19.070Z,88.85
2022-11-26T08:08:45.607Z,74.78
2022-11-26T08:11:23.986Z,76.20
2022-11-26T08:14:04.487Z,75.00
2022-11-26T08:16:31.528Z,73.20
2022-11-26T08:18:59.394Z,71.07
2022-11-26T08:21:26.414Z,78.80
2022-11-26T08:23:53.846Z,79.95
2022-11-26T08:26:24.991Z,75.70
2022-11-26T08:28:55.525Z,89.85
2022-11-26T08:31:24.720Z,107.38
2022-11-26T08:33:51.451Z,65.63
2022-11-26T08:36:18.239Z,68.07
2022-11-26T08:38:44.891Z,66.07
2022-11-26T08:41:12.873Z,65.00
2022-11-26T08:44:05.007Z,62.97
2022-11-26T08:46:27.285Z,66.03
2022-11-26T08:48:57.728Z,67.55
2022-11-26T08:51:24.912Z,69.47
2022-11-26T08:53:51.591Z,68.95
2022-11-26T08:56:18.686Z,65.70
2022-11-26T08:58:45.585Z,68.30
2022-11-26T09:01:25.500Z,70.57
2022-11-26T09:03:54.338Z,67.35
2022-11-26T09:06:22.554Z,68.50
2022-11-26T09:09:08.431Z,61.10
2022-11-26T09:11:40.863Z,62.90
2022-11-26T09:16:26.144Z,60.50
2022-11-26T09:18:52.915Z,68.03
2022-11-26T09:21:20.497Z,59.88
2022-11-26T09:23:47.173Z,65.70
2022-11-26T09:26:14.008Z,60.25
2022-11-26T09:28:40.635Z,62.92
2022-11-26T09:31:07.314Z,60.58
2022-11-26T09:33:33.954Z,59.15
2022-11-26T09:36:19.355Z,58.83
2022-11-26T09:38:46.043Z,60.22
2022-11-26T09:41:25.214Z,62.03
2022-11-26T09:44:10.844Z,57.20
2022-11-26T09:47:12.005Z,60.35
2022-11-26T09:49:51.639Z,59.20
2022-11-26T09:52:21.270Z,58.47
2022-11-26T09:54:51.568Z,61.28
2022-11-26T09:58:09.426Z,59.05
2022-11-26T10:00:47.873Z,52.85
2022-11-26T10:03:17.476Z,56.72
2022-11-26T10:05:53.325Z,60.55
2022-11-26T10:08:42.962Z,59.85
2022-11-26T10:11:33.532Z,59.90
2022-11-26T10:14:03.111Z,63.10
2022-11-26T10:16:56.447Z,63.97
2022-11-26T10:19:56.442Z,66.70
2022-11-26T10:22:30.520Z,77.28
2022-11-26T10:24:59.652Z,70.82
2022-11-26T10:27:32.290Z,70.70
2022-11-26T10:30:02.977Z,66.05
2022-11-26T10:32:37.945Z,76.47
2022-11-26T10:35:05.983Z,71.32
2022-11-26T10:37:32.727Z,72.40
2022-11-26T10:40:25.692Z,77.80
2022-11-26T10:42:58.743Z,76.00
2022-11-26T10:45:36.411Z,77.38
2022-11-26T10:48:29.945Z,75.25
2022-11-26T10:51:21.255Z,73.72
2022-11-26T10:54:00.993Z,76.20
2022-11-26T10:56:40.322Z,78.75
2022-11-26T10:59:22.493Z,77.45
2022-11-26T11:01:51.703Z,80.03
2022-11-26T11:04:36.598Z,79.53
2022-11-26T11:07:06.234Z,75.85
2022-11-26T11:09:38.046Z,78.45
2022-11-26T11:12:13.478Z,73.38
2022-11-26T11:14:43.395Z,75.63
2022-11-26T11:17:40.967Z,77.80
2022-11-26T11:20:16.335Z,71.28
2022-11-26T11:22:44.902Z,77.38
2022-11-26T11:25:23.550Z,80.72
2022-11-26T11:27:50.398Z,70.15
2022-11-26T11:30:28.583Z,72.97
2022-11-26T11:35:18.775Z,56.97
2022-11-26T11:37:56.786Z,47.60
2022-11-26T11:40:27.768Z,48.90
2022-11-26T11:42:57.047Z,43.00
2022-11-26T11:45:39.614Z,62.38
2022-11-26T11:48:28.039Z,78.95
2022-11-26T11:51:03.132Z,77.03
2022-11-26T11:54:10.988Z,55.95
2022-11-26T11:56:55.346Z,64.43
2022-11-26T11:59:58.335Z,56.63
2022-11-26T12:02:51.113Z,74.10
2022-11-26T12:05:45.183Z,75.00
2022-11-26T12:08:31.938Z,69.70
2022-11-26T12:11:20.119Z,63.85
2022-11-26T12:13:52.250Z,61.95
2022-11-26T12:19:05.132Z,56.85
2022-11-26T12:21:39.491Z,60.05
2022-11-26T12:24:24.398Z,55.22
2022-11-26T12:27:04.593Z,55.13
2022-11-26T12:29:44.235Z,58.55
2022-11-26T12:32:22.520Z,49.25
2022-11-26T12:34:52.755Z,52.08
2022-11-26T12:37:28.731Z,44.40
2022-11-26T12:40:19.230Z,44.50
2022-11-26T12:43:10.049Z,44.83
2022-11-26T12:45:45.461Z,49.55
2022-11-26T12:48:29.979Z,39.58
2022-11-26T12:51:17.026Z,41.40
2022-11-26T12:53:52.279Z,45.22
2022-11-26T12:56:30.939Z,39.08
2022-11-26T12:59:26.406Z,41.67
2022-11-26T13:01:53.359Z,40.38
2022-11-26T13:04:37.146Z,38.88
2022-11-26T13:07:23.352Z,40.78
2022-11-26T13:10:07.392Z,43.05
2022-11-26T13:12:56.478Z,37.22
2022-11-26T13:15:33.280Z,35.33
2022-11-26T13:18:01.044Z,33.83
2022-11-26T13:20:46.746Z,37.47
2022-11-26T13:23:38.247Z,35.75
2022-11-26T13:26:31.245Z,35.28
2022-11-26T13:29:30.104Z,33.75
2022-11-26T13:32:25.204Z,33.83
2022-11-26T13:35:10.028Z,34.17
2022-11-26T13:37:39.438Z,33.33
2022-11-26T13:40:11.192Z,33.67
2022-11-26T13:42:40.643Z,34.50
2022-11-26T13:45:31.447Z,32.17
2022-11-26T13:48:12.376Z,33.78
2022-11-26T13:50:50.210Z,36.08
2022-11-26T13:53:26.716Z,37.40
2022-11-26T13:55:59.520Z,38.63
2022-11-26T13:58:47.540Z,35.70
2022-11-26T14:01:40.543Z,41.60
2022-11-26T14:04:48.470Z,33.72
2022-11-26T14:07:15.507Z,38.33
2022-11-26T14:09:42.274Z,40.10
2022-11-26T14:12:13.284Z,35.80
2022-11-26T14:14:42.119Z,39.03
2022-11-26T14:17:08.883Z,40.83
2022-11-26T14:19:42.297Z,38.92
2022-11-26T14:22:30.343Z,41.28
2022-11-26T14:24:59.979Z,46.95
2022-11-26T14:27:30.655Z,44.95
2022-11-26T14:30:02.890Z,47.58
2022-11-26T14:35:00.596Z,46.92
2022-11-26T14:37:30.429Z,45.22
2022-11-26T14:42:29.134Z,51.88
2022-11-26T14:45:15.045Z,48.67
2022-11-26T14:47:44.462Z,52.58
2022-11-26T14:50:17.368Z,52.05
2022-11-26T14:52:45.925Z,54.10
2022-11-26T14:55:15.170Z,50.22
2022-11-26T14:57:51.879Z,52.67
2022-11-26T15:00:27.873Z,50.70
2022-11-26T15:02:54.973Z,50.45
2022-11-26T15:05:27.651Z,47.67
2022-11-26T15:08:14.647Z,54.53
2022-11-26T15:10:50.307Z,50.05
2022-11-26T15:13:32.939Z,54.95
2022-11-26T15:16:02.734Z,53.05
2022-11-26T15:18:32.490Z,51.92
2022-11-26T15:21:01.282Z,56.72
2022-11-26T15:23:35.280Z,58.70
2022-11-26T15:26:03.135Z,72.28
2022-11-26T15:28:36.427Z,57.42
2022-11-26T15:31:05.257Z,60.97
2022-11-26T15:33:34.074Z,56.92
2022-11-26T15:36:02.082Z,55.47
2022-11-26T15:38:31.535Z,53.08
2022-11-26T15:41:02.119Z,55.88
2022-11-26T15:43:51.029Z,54.75
2022-11-26T15:46:30.447Z,50.85
2022-11-26T15:49:18.703Z,51.63
2022-11-26T15:52:21.135Z,47.58
2022-11-26T15:57:37.186Z,45.95
2022-11-26T16:00:21.076Z,47.72
2022-11-26T16:02:47.998Z,48.55
2022-11-26T16:05:41.214Z,47.33
2022-11-26T16:08:24.407Z,46.88
2022-11-26T16:10:56.077Z,46.85
2022-11-26T16:13:28.334Z,44.60
2022-11-26T16:16:04.374Z,43.35
2022-11-26T16:18:40.889Z,49.80
2022-11-26T16:21:18.435Z,45.67
2022-11-26T16:23:54.098Z,45.00
2022-11-26T16:26:20.655Z,43.80
2022-11-26T16:28:47.791Z,42.83
2022-11-26T16:31:15.999Z,46.10
2022-11-26T16:33:43.435Z,47.78
2022-11-26T16:36:26.743Z,48.80
2022-11-26T16:38:53.899Z,49.03
2022-11-26T16:41:22.475Z,52.20
2022-11-26T16:43:49.754Z,47.63
2022-11-26T16:46:23.578Z,53.13
2022-11-26T16:48:51.320Z,46.55
2022-11-26T16:51:19.550Z,49.78
2022-11-26T16:53:46.116Z,47.20
2022-11-26T16:56:20.470Z,50.85
2022-11-26T16:58:47.639Z,45.30
2022-11-26T17:01:14.264Z,45.63
2022-11-26T17:03:41.012Z,45.00
2022-11-26T17:06:13.975Z,47.50
2022-11-26T17:08:45.013Z,48.15
2022-11-26T17:11:14.651Z,47.63
2022-11-26T17:13:41.603Z,49.33
2022-11-26T17:16:15.264Z,45.83
2022-11-26T17:18:43.117Z,43.70
2022-11-26T17:21:10.302Z,50.58
2022-11-26T17:23:36.932Z,51.92
2022-11-26T17:26:11.540Z,59.47
2022-11-26T17:28:38.344Z,71.65
2022-11-26T17:31:04.892Z,50.55
2022-11-26T17:33:31.546Z,40.97
2022-11-26T17:35:58.067Z,35.47
2022-11-26T17:38:24.712Z,31.08
2022-11-26T17:43:12.192Z,32.38
2022-11-26T17:45:39.667Z,34.78
2022-11-26T17:48:06.595Z,32.15
2022-11-26T17:50:34.180Z,29.45
2022-11-26T17:53:00.670Z,30.67
2022-11-26T17:55:27.402Z,28.48
2022-11-26T17:57:55.258Z,26.55
2022-11-26T18:00:28.018Z,18.85
2022-11-26T18:02:55.059Z,19.00
2022-11-26T18:05:22.284Z,20.83
2022-11-26T18:07:50.046Z,18.70
2022-11-26T18:10:18.658Z,20.10
2022-11-26T18:12:45.645Z,18.17
2022-11-26T18:15:18.643Z,18.60
2022-11-26T18:17:48.246Z,17.17
2022-11-26T18:20:18.095Z,17.73
2022-11-26T18:22:46.713Z,18.80
2022-11-26T18:25:14.148Z,19.02
2022-11-26T18:27:40.855Z,19.50
2022-11-26T18:30:08.437Z,21.58
2022-11-26T18:32:37.321Z,22.58
2022-11-26T18:35:05.670Z,22.92
2022-11-26T18:37:34.664Z,23.10
2022-11-26T18:40:01.840Z,21.38
2022-11-26T18:42:37.230Z,20.65
2022-11-26T18:45:11.479Z,22.85
2022-11-26T18:47:38.261Z,25.58
2022-11-26T18:50:06.423Z,23.13
2022-11-26T18:52:33.714Z,22.05
2022-11-26T18:55:00.324Z,19.90
2022-11-26T18:57:27.764Z,21.92
2022-11-26T18:59:54.425Z,23.30
2022-11-26T19:02:21.271Z,23.52
2022-11-26T19:04:47.850Z,23.35
2022-11-26T19:07:14.547Z,23.40
2022-11-26T19:09:42.027Z,20.17
2022-11-26T19:12:09.178Z,20.42
2022-11-26T19:14:36.642Z,23.02
2022-11-26T19:17:03.293Z,23.45
2022-11-26T19:19:30.982Z,25.50
2022-11-26T19:22:01.149Z,26.85
2022-11-26T19:24:29.750Z,29.75
2022-11-26T19:26:56.710Z,32.38
2022-11-26T19:29:23.570Z,33.50
2022-11-26T19:31:50.851Z,34.65
2022-11-26T19:34:17.530Z,35.05
2022-11-26T19:36:48.269Z,38.20
2022-11-26T19:39:15.849Z,33.03
2022-11-26T19:41:42.458Z,38.63
2022-11-26T19:44:09.074Z,39.80
2022-11-26T19:46:39.215Z,38.55
2022-11-26T19:49:07.646Z,34.78
2022-11-26T19:51:34.338Z,38.13
2022-11-26T19:54:00.904Z,35.20
2022-11-26T19:56:29.563Z,28.88
2022-11-26T19:58:58.612Z,37.28
2022-11-26T20:01:29.860Z,34.78
2022-11-26T20:03:58.646Z,36.97
2022-11-26T20:06:26.770Z,35.17
2022-11-26T20:08:53.968Z,36.45
2022-11-26T20:11:20.615Z,36.00
2022-11-26T20:13:49.132Z,38.33
2022-11-26T20:16:27.929Z,34.17
2022-11-26T20:18:55.440Z,32.53
2022-11-26T20:21:27.331Z,32.30
2022-11-26T20:23:57.146Z,35.38
2022-11-26T20:26:30.290Z,33.75
2022-11-26T20:29:00.626Z,32.58
2022-11-26T20:31:27.242Z,33.45
2022-11-26T20:33:54.830Z,31.40
2022-11-26T20:36:23.084Z,34.08
2022-11-26T20:39:00.624Z,31.20
2022-11-26T20:41:28.206Z,35.10
2022-11-26T20:43:58.951Z,28.70
2022-11-26T20:46:27.929Z,35.67
2022-11-26T20:48:55.042Z,32.28
2022-11-26T20:51:22.584Z,30.83
2022-11-26T20:53:53.683Z,26.60
2022-11-26T20:56:22.105Z,26.63
2022-11-26T20:58:50.248Z,26.73
2022-11-26T21:01:20.219Z,29.55
2022-11-26T21:03:49.211Z,30.05
2022-11-26T21:06:18.201Z,23.15
2022-11-26T21:08:45.344Z,26.35
2022-11-26T21:11:13.466Z,26.83
2022-11-26T21:13:40.811Z,26.27
2022-11-26T21:16:10.584Z,25.20
2022-11-26T21:18:37.468Z,25.48
2022-11-26T21:21:11.094Z,24.85
2022-11-26T21:23:39.619Z,24.85
2022-11-26T21:26:12.639Z,22.70
2022-11-26T21:28:39.479Z,23.17
2022-11-26T21:31:17.955Z,23.50
2022-11-26T21:33:45.809Z,22.63
2022-11-26T21:36:14.943Z,20.08
2022-11-26T21:38:42.314Z,23.48
2022-11-26T21:41:12.386Z,20.10
2022-11-26T21:43:40.464Z,19.88
2022-11-26T21:46:09.498Z,17.98
2022-11-26T21:48:36.124Z,18.38
2022-11-26T21:51:10.683Z,15.55
2022-11-26T21:56:10.024Z,18.42
2022-11-26T21:58:37.139Z,16.80
2022-11-26T22:01:14.092Z,21.92
2022-11-26T22:03:42.459Z,17.27
2022-11-26T22:06:10.120Z,18.15
2022-11-26T22:08:38.281Z,20.05
2022-11-26T22:11:13.895Z,18.73
2022-11-26T22:13:41.131Z,17.63
2022-11-26T22:16:09.301Z,18.38
2022-11-26T22:18:38.161Z,19.67
2022-11-26T22:21:07.942Z,19.48
2022-11-26T22:23:35.059Z,17.63
2022-11-26T22:26:01.650Z,21.83
2022-11-26T22:28:30.263Z,18.38
2022-11-26T22:30:57.164Z,18.95
2022-11-26T22:33:24.486Z,21.10
2022-11-26T22:35:51.012Z,19.65
2022-11-26T22:38:17.562Z,20.85
2022-11-26T22:40:44.095Z,20.45
2022-11-26T22:43:10.834Z,21.05
2022-11-26T22:45:38.302Z,19.38
2022-11-26T22:48:05.375Z,20.27
2022-11-26T22:50:31.865Z,21.33
2022-11-26T22:52:58.520Z,21.65
2022-11-26T22:55:25.278Z,22.35
2022-11-26T22:57:51.923Z,22.60
2022-11-26T23:00:56.631Z,20.52
2022-11-26T23:03:24.907Z,20.35
2022-11-26T23:05:51.896Z,22.73
2022-11-26T23:08:19.888Z,19.33
2022-11-26T23:10:50.735Z,22.05
2022-11-26T23:13:19.932Z,18.48
2022-11-26T23:15:47.346Z,18.42
2022-11-26T23:18:15.676Z,17.58
2022-11-26T23:20:43.555Z,20.50
2022-11-26T23:23:10.615Z,17.10
2022-11-26T23:25:38.779Z,20.90
2022-11-26T23:28:06.635Z,17.52
2022-11-26T23:30:33.705Z,18.80
2022-11-26T23:33:00.371Z,17.73
2022-11-26T23:35:27.075Z,17.23
2022-11-26T23:37:53.678Z,21.42
2022-11-26T23:40:20.185Z,21.88
2022-11-26T23:42:46.791Z,22.52
2022-11-26T23:45:13.282Z,22.13
2022-11-26T23:47:40.317Z,19.52
2022-11-26T23:50:08.116Z,20.33
2022-11-26T23:52:36.277Z,20.95
2022-11-26T23:55:03.231Z,18.60
2022-11-26T23:57:29.811Z,21.13
2022-11-26T23:59:56.351Z,20.67
